sensor_id;sensor_type;location;lat;lon;timestamp;pressure;altitude;pressure_sealevel;temperature;humidity
28630;BME280;15817;42.130;24.762;2023-02-19T00:20:54;100011.25;;;12.23;50.06
28630;BME280;15817;42.130;24.762;2023-02-19T00:27:14;100008.72;;;12.11;50.30
28630;BME280;15817;42.130;24.762;2023-02-19T00:29:42;99998.06;;;12.10;50.22
28630;BME280;15817;42.130;24.762;2023-02-19T00:32:08;100004.31;;;12.06;50.52
28630;BME280;15817;42.130;24.762;2023-02-19T00:34:35;99992.78;;;12.04;50.52
28630;BME280;15817;42.130;24.762;2023-02-19T00:37:00;100005.22;;;12.06;50.70
28630;BME280;15817;42.130;24.762;2023-02-19T00:39:26;99988.44;;;11.95;50.93
28630;BME280;15817;42.130;24.762;2023-02-19T00:41:54;99996.41;;;12.00;50.99
28630;BME280;15817;42.130;24.762;2023-02-19T00:44:20;99977.78;;;11.92;51.13
28630;BME280;15817;42.130;24.762;2023-02-19T00:46:48;99973.38;;;11.91;51.27
28630;BME280;15817;42.130;24.762;2023-02-19T00:49:25;99970.75;;;11.86;51.12
28630;BME280;15817;42.130;24.762;2023-02-19T00:51:51;99969.88;;;11.84;51.22
28630;BME280;15817;42.130;24.762;2023-02-19T00:54:18;99972.56;;;11.81;51.58
28630;BME280;15817;42.130;24.762;2023-02-19T00:56:44;99970.78;;;11.80;51.45
28630;BME280;15817;42.130;24.762;2023-02-19T00:59:10;99969.91;;;11.78;51.64
28630;BME280;15817;42.130;24.762;2023-02-19T01:01:36;99969.09;;;11.76;51.60
28630;BME280;15817;42.130;24.762;2023-02-19T01:04:05;99967.28;;;11.72;51.73
28630;BME280;15817;42.130;24.762;2023-02-19T01:06:30;99987.69;;;11.78;51.90
28630;BME280;15817;42.130;24.762;2023-02-19T01:08:57;99979.72;;;11.72;51.86
28630;BME280;15817;42.130;24.762;2023-02-19T01:11:26;99974.41;;;11.69;51.92
28630;BME280;15817;42.130;24.762;2023-02-19T01:13:55;99980.63;;;11.69;52.26
28630;BME280;15817;42.130;24.762;2023-02-19T01:16:22;99959.41;;;11.60;52.51
28630;BME280;15817;42.130;24.762;2023-02-19T01:18:49;99960.31;;;11.57;52.49
28630;BME280;15817;42.130;24.762;2023-02-19T01:21:23;99961.22;;;11.55;52.67
28630;BME280;15817;42.130;24.762;2023-02-19T01:23:58;99975.47;;;11.51;52.57
28630;BME280;15817;42.130;24.762;2023-02-19T01:26:28;99968.47;;;11.36;52.87
28630;BME280;15817;42.130;24.762;2023-02-19T01:28:58;99972.09;;;11.29;52.95
28630;BME280;15817;42.130;24.762;2023-02-19T01:31:27;99974.75;;;11.28;53.39
28630;BME280;15817;42.130;24.762;2023-02-19T01:33:55;99975.66;;;11.25;53.36
28630;BME280;15817;42.130;24.762;2023-02-19T01:36:25;99974.84;;;11.15;53.72
28630;BME280;15817;42.130;24.762;2023-02-19T01:38:50;99973.06;;;11.16;53.62
28630;BME280;15817;42.130;24.762;2023-02-19T01:41:22;99964.19;;;11.17;53.69
28630;BME280;15817;42.130;24.762;2023-02-19T01:44:01;99967.75;;;11.19;53.79
28630;BME280;15817;42.130;24.762;2023-02-19T01:46:32;99970.34;;;11.20;53.64
28630;BME280;15817;42.130;24.762;2023-02-19T01:49:03;99956.22;;;11.12;53.48
28630;BME280;15817;42.130;24.762;2023-02-19T01:51:35;99965.09;;;11.11;53.56
28630;BME280;15817;42.130;24.762;2023-02-19T01:54:47;99950.03;;;11.09;53.86
28630;BME280;15817;42.130;24.762;2023-02-19T01:57:22;99950.91;;;11.11;53.83
28630;BME280;15817;42.130;24.762;2023-02-19T01:59:52;99935.91;;;11.01;54.30
28630;BME280;15817;42.130;24.762;2023-02-19T02:02:22;99946.53;;;10.99;54.58
28630;BME280;15817;42.130;24.762;2023-02-19T02:04:50;99954.50;;;11.07;54.27
28630;BME280;15817;42.130;24.762;2023-02-19T02:07:19;99955.41;;;11.07;54.33
28630;BME280;15817;42.130;24.762;2023-02-19T02:10:05;99966.00;;;11.09;54.11
28630;BME280;15817;42.130;24.762;2023-02-19T02:12:49;99957.13;;;11.08;53.74
28630;BME280;15817;42.130;24.762;2023-02-19T02:15:16;99970.44;;;11.11;53.81
28630;BME280;15817;42.130;24.762;2023-02-19T02:31:18;99962.50;;;11.02;54.30
28630;BME280;15817;42.130;24.762;2023-02-19T02:33:57;99978.47;;;11.07;54.56
28630;BME280;15817;42.130;24.762;2023-02-19T02:36:29;99974.03;;;11.00;54.98
28630;BME280;15817;42.130;24.762;2023-02-19T02:38:56;99978.47;;;10.99;54.73
28630;BME280;15817;42.130;24.762;2023-02-19T02:41:24;99985.56;;;11.06;55.09
28630;BME280;15817;42.130;24.762;2023-02-19T02:43:50;99974.94;;;11.00;54.50
28630;BME280;15817;42.130;24.762;2023-02-19T02:46:23;99974.94;;;11.00;54.56
28630;BME280;15817;42.130;24.762;2023-02-19T02:48:56;99972.28;;;11.02;54.24
28630;BME280;15817;42.130;24.762;2023-02-19T02:51:35;99975.81;;;11.01;54.07
28630;BME280;15817;42.130;24.762;2023-02-19T02:54:20;99973.16;;;11.02;53.92
28630;BME280;15817;42.130;24.762;2023-02-19T02:57:10;99978.47;;;11.02;54.35
28630;BME280;15817;42.130;24.762;2023-02-19T02:59:45;99983.81;;;10.99;54.52
28630;BME280;15817;42.130;24.762;2023-02-19T03:02:18;99987.41;;;10.92;54.58
28630;BME280;15817;42.130;24.762;2023-02-19T03:07:38;99993.63;;;10.86;54.97
28630;BME280;15817;42.130;24.762;2023-02-19T03:10:09;99988.31;;;10.85;55.05
28630;BME280;15817;42.130;24.762;2023-02-19T03:12:37;100007.81;;;10.85;55.02
28630;BME280;15817;42.130;24.762;2023-02-19T03:15:26;100006.94;;;10.85;54.98
28630;BME280;15817;42.130;24.762;2023-02-19T03:18:12;99995.44;;;10.83;54.94
28630;BME280;15817;42.130;24.762;2023-02-19T03:20:57;100001.66;;;10.80;54.86
28630;BME280;15817;42.130;24.762;2023-02-19T03:23:28;100001.66;;;10.77;55.26
28630;BME280;15817;42.130;24.762;2023-02-19T03:26:18;100009.66;;;10.74;55.39
28630;BME280;15817;42.130;24.762;2023-02-19T03:28:51;100020.28;;;10.74;55.17
28630;BME280;15817;42.130;24.762;2023-02-19T03:31:39;100016.78;;;10.69;55.27
28630;BME280;15817;42.130;24.762;2023-02-19T03:34:10;100000.81;;;10.68;55.34
28630;BME280;15817;42.130;24.762;2023-02-19T03:36:44;100002.59;;;10.66;55.11
28630;BME280;15817;42.130;24.762;2023-02-19T03:39:19;100004.38;;;10.70;55.14
28630;BME280;15817;42.130;24.762;2023-02-19T03:41:54;100005.22;;;10.73;55.15
28630;BME280;15817;42.130;24.762;2023-02-19T03:47:29;100019.41;;;10.80;54.81
28630;BME280;15817;42.130;24.762;2023-02-19T03:50:07;100015.84;;;10.76;54.69
28630;BME280;15817;42.130;24.762;2023-02-19T03:53:12;100022.06;;;10.78;54.62
28630;BME280;15817;42.130;24.762;2023-02-19T03:56:08;100024.69;;;10.86;54.64
28630;BME280;15817;42.130;24.762;2023-02-19T03:58:50;100020.25;;;10.85;54.56
28630;BME280;15817;42.130;24.762;2023-02-19T04:01:33;100019.34;;;10.86;54.21
28630;BME280;15817;42.130;24.762;2023-02-19T04:04:11;100029.09;;;10.92;54.19
28630;BME280;15817;42.130;24.762;2023-02-19T04:06:39;100026.44;;;10.92;53.83
28630;BME280;15817;42.130;24.762;2023-02-19T04:09:11;100033.50;;;10.97;53.84
28630;BME280;15817;42.130;24.762;2023-02-19T04:11:41;100028.22;;;10.96;53.72
28630;BME280;15817;42.130;24.762;2023-02-19T04:14:25;100034.41;;;10.92;53.84
28630;BME280;15817;42.130;24.762;2023-02-19T04:16:58;100055.66;;;10.98;54.02
28630;BME280;15817;42.130;24.762;2023-02-19T04:19:26;100062.81;;;10.93;54.34
28630;BME280;15817;42.130;24.762;2023-02-19T04:21:54;100054.81;;;10.89;54.27
28630;BME280;15817;42.130;24.762;2023-02-19T04:24:26;100067.25;;;10.89;54.50
28630;BME280;15817;42.130;24.762;2023-02-19T04:26:53;100071.69;;;10.85;54.64
28630;BME280;15817;42.130;24.762;2023-02-19T04:29:19;100069.91;;;10.86;54.29
28630;BME280;15817;42.130;24.762;2023-02-19T04:31:45;100065.50;;;10.82;54.26
28630;BME280;15817;42.130;24.762;2023-02-19T04:34:11;100068.13;;;10.86;53.70
28630;BME280;15817;42.130;24.762;2023-02-19T04:36:37;100061.03;;;10.93;53.44
28630;BME280;15817;42.130;24.762;2023-02-19T04:39:03;100067.19;;;10.98;53.02
28630;BME280;15817;42.130;24.762;2023-02-19T04:41:31;100065.41;;;11.06;53.08
28630;BME280;15817;42.130;24.762;2023-02-19T04:43:57;100076.03;;;11.08;52.96
28630;BME280;15817;42.130;24.762;2023-02-19T04:46:22;100068.03;;;11.08;53.17
28630;BME280;15817;42.130;24.762;2023-02-19T04:48:48;100073.34;;;11.14;53.05
28630;BME280;15817;42.130;24.762;2023-02-19T04:51:14;100074.22;;;11.16;52.75
28630;BME280;15817;42.130;24.762;2023-02-19T04:53:40;100064.47;;;11.15;52.61
28630;BME280;15817;42.130;24.762;2023-02-19T04:56:13;100068.91;;;11.19;52.28
28630;BME280;15817;42.130;24.762;2023-02-19T04:58:46;100075.06;;;11.25;52.19
28630;BME280;15817;42.130;24.762;2023-02-19T05:01:13;100082.16;;;11.28;52.07
28630;BME280;15817;42.130;24.762;2023-02-19T05:03:39;100088.31;;;11.32;51.99
28630;BME280;15817;42.130;24.762;2023-02-19T05:06:07;100083.94;;;11.29;52.28
28630;BME280;15817;42.130;24.762;2023-02-19T05:08:33;100083.94;;;11.24;52.36
28630;BME280;15817;42.130;24.762;2023-02-19T05:11:00;100093.69;;;11.25;52.65
28630;BME280;15817;42.130;24.762;2023-02-19T05:13:33;100074.22;;;11.17;52.71
28630;BME280;15817;42.130;24.762;2023-02-19T05:16:04;100075.06;;;11.19;52.16
28630;BME280;15817;42.130;24.762;2023-02-19T05:18:31;100072.41;;;11.22;52.37
28630;BME280;15817;42.130;24.762;2023-02-19T05:20:58;100076.84;;;11.22;52.38
28630;BME280;15817;42.130;24.762;2023-02-19T05:23:33;100083.06;;;11.25;52.24
28630;BME280;15817;42.130;24.762;2023-02-19T05:26:04;100087.47;;;11.30;52.05
28630;BME280;15817;42.130;24.762;2023-02-19T05:28:33;100084.75;;;11.37;51.85
28630;BME280;15817;42.130;24.762;2023-02-19T05:31:06;100087.38;;;11.45;51.67
28630;BME280;15817;42.130;24.762;2023-02-19T05:33:34;100089.13;;;11.46;51.61
28630;BME280;15817;42.130;24.762;2023-02-19T05:36:05;100098.91;;;11.48;51.47
28630;BME280;15817;42.130;24.762;2023-02-19T05:38:31;100104.22;;;11.51;51.52
28630;BME280;15817;42.130;24.762;2023-02-19T05:41:12;100117.47;;;11.56;51.40
28630;BME280;15817;42.130;24.762;2023-02-19T05:43:39;100107.75;;;11.53;51.22
28630;BME280;15817;42.130;24.762;2023-02-19T05:46:06;100111.28;;;11.54;51.20
28630;BME280;15817;42.130;24.762;2023-02-19T05:48:35;100115.69;;;11.58;51.01
28630;BME280;15817;42.130;24.762;2023-02-19T05:51:08;100112.13;;;11.64;51.13
28630;BME280;15817;42.130;24.762;2023-02-19T05:53:37;100122.72;;;11.70;51.04
28630;BME280;15817;42.130;24.762;2023-02-19T05:56:03;100118.28;;;11.73;50.70
28630;BME280;15817;42.130;24.762;2023-02-19T05:58:46;100126.28;;;11.73;50.48
28630;BME280;15817;42.130;24.762;2023-02-19T06:01:27;100131.59;;;11.78;50.51
28630;BME280;15817;42.130;24.762;2023-02-19T06:04:35;100141.34;;;11.85;50.14
28630;BME280;15817;42.130;24.762;2023-02-19T06:07:01;100147.50;;;11.88;49.87
28630;BME280;15817;42.130;24.762;2023-02-19T06:09:37;100152.81;;;11.98;49.66
28630;BME280;15817;42.130;24.762;2023-02-19T06:12:22;100158.09;;;12.01;49.60
28630;BME280;15817;42.130;24.762;2023-02-19T06:15:00;100166.06;;;12.05;49.47
28630;BME280;15817;42.130;24.762;2023-02-19T06:17:37;100166.97;;;12.03;49.43
28630;BME280;15817;42.130;24.762;2023-02-19T06:20:39;100178.44;;;12.14;49.26
28630;BME280;15817;42.130;24.762;2023-02-19T06:23:41;100174.84;;;12.22;49.05
28630;BME280;15817;42.130;24.762;2023-02-19T06:26:32;100166.84;;;12.19;48.74
28630;BME280;15817;42.130;24.762;2023-02-19T06:29:27;100174.84;;;12.21;48.93
28630;BME280;15817;42.130;24.762;2023-02-19T06:39:45;100188.91;;;12.40;48.81
28630;BME280;15817;42.130;24.762;2023-02-19T06:42:39;100191.56;;;12.44;48.76
28630;BME280;15817;42.130;24.762;2023-02-19T06:54:00;100194.94;;;12.63;48.38
28630;BME280;15817;42.130;24.762;2023-02-19T06:56:56;100185.16;;;12.60;48.50
28630;BME280;15817;42.130;24.762;2023-02-19T06:59:34;100199.34;;;12.68;48.45
28630;BME280;15817;42.130;24.762;2023-02-19T07:02:10;100194.81;;;12.78;47.95
28630;BME280;15817;42.130;24.762;2023-02-19T07:13:16;100200.84;;;12.95;47.40
28630;BME280;15817;42.130;24.762;2023-02-19T07:16:11;100198.16;;;12.95;47.50
28630;BME280;15817;42.130;24.762;2023-02-19T07:19:27;100218.53;;;13.04;47.23
28630;BME280;15817;42.130;24.762;2023-02-19T07:21:59;100204.25;;;13.10;47.24
28630;BME280;15817;42.130;24.762;2023-02-19T07:24:37;100206.91;;;13.11;47.17
28630;BME280;15817;42.130;24.762;2023-02-19T07:27:11;100197.13;;;13.15;47.07
28630;BME280;15817;42.130;24.762;2023-02-19T07:35:55;100188.75;;;13.44;46.17
28630;BME280;15817;42.130;24.762;2023-02-19T07:38:33;100193.97;;;13.54;46.36
28630;BME280;15817;42.130;24.762;2023-02-19T07:41:01;100185.97;;;13.53;46.43
28630;BME280;15817;42.130;24.762;2023-02-19T07:43:39;100199.19;;;13.63;46.57
28630;BME280;15817;42.130;24.762;2023-02-19T07:46:12;100190.34;;;13.58;46.41
28630;BME280;15817;42.130;24.762;2023-02-19T07:48:39;100186.72;;;13.62;46.13
28630;BME280;15817;42.130;24.762;2023-02-19T07:51:14;100197.31;;;13.70;46.10
28630;BME280;15817;42.130;24.762;2023-02-19T07:53:51;100188.34;;;13.74;46.16
28630;BME280;15817;42.130;24.762;2023-02-19T07:56:24;100192.75;;;13.80;45.99
28630;BME280;15817;42.130;24.762;2023-02-19T07:58:52;100190.88;;;13.85;46.23
28630;BME280;15817;42.130;24.762;2023-02-19T08:01:22;100196.16;;;13.91;46.10
28630;BME280;15817;42.130;24.762;2023-02-19T08:04:13;100188.91;;;13.97;45.92
28630;BME280;15817;42.130;24.762;2023-02-19T08:06:45;100199.41;;;14.09;45.68
28630;BME280;15817;42.130;24.762;2023-02-19T08:09:13;100191.31;;;14.17;45.76
28630;BME280;15817;42.130;24.762;2023-02-19T08:11:42;100194.63;;;14.31;45.31
28630;BME280;15817;42.130;24.762;2023-02-19T08:14:32;100183.75;;;14.43;45.13
28630;BME280;15817;42.130;24.762;2023-02-19T08:17:04;100190.66;;;14.58;45.14
28630;BME280;15817;42.130;24.762;2023-02-19T08:19:33;100185.22;;;14.64;45.15
28630;BME280;15817;42.130;24.762;2023-02-19T08:22:09;100182.56;;;14.63;45.15
28630;BME280;15817;42.130;24.762;2023-02-19T08:24:35;100178.91;;;14.65;45.03
28630;BME280;15817;42.130;24.762;2023-02-19T08:27:10;100182.38;;;14.72;44.95
28630;BME280;15817;42.130;24.762;2023-02-19T08:29:41;100188.47;;;14.80;44.94
28630;BME280;15817;42.130;24.762;2023-02-19T08:32:16;100169.63;;;14.86;44.79
28630;BME280;15817;42.130;24.762;2023-02-19T08:34:53;100167.75;;;14.91;44.58
28630;BME280;15817;42.130;24.762;2023-02-19T08:37:29;100163.94;;;15.03;44.36
28630;BME280;15817;42.130;24.762;2023-02-19T08:40:17;100173.53;;;15.14;44.09
28630;BME280;15817;42.130;24.762;2023-02-19T08:42:43;100161.88;;;15.17;44.39
28630;BME280;15817;42.130;24.762;2023-02-19T08:45:24;100158.13;;;15.26;44.03
28630;BME280;15817;42.130;24.762;2023-02-19T08:47:53;100157.03;;;15.36;44.04
28630;BME280;15817;42.130;24.762;2023-02-19T08:50:24;100153.19;;;15.47;43.88
28630;BME280;15817;42.130;24.762;2023-02-19T08:52:53;100161.09;;;15.56;43.54
28630;BME280;15817;42.130;24.762;2023-02-19T08:55:30;100151.91;;;15.68;43.30
28630;BME280;15817;42.130;24.762;2023-02-19T08:58:03;100151.72;;;15.76;43.19
28630;BME280;15817;42.130;24.762;2023-02-19T09:00:36;100150.69;;;15.81;43.09
28630;BME280;15817;42.130;24.762;2023-02-19T09:03:13;100147.97;;;15.83;43.42
28630;BME280;15817;42.130;24.762;2023-02-19T09:05:40;100152.00;;;16.04;43.03
28630;BME280;15817;42.130;24.762;2023-02-19T09:08:09;100138.41;;;16.10;43.25
28630;BME280;15817;42.130;24.762;2023-02-19T09:10:40;100141.63;;;16.25;42.86
28630;BME280;15817;42.130;24.762;2023-02-19T09:13:08;100128.00;;;16.33;42.92
28630;BME280;15817;42.130;24.762;2023-02-19T09:16:09;100140.22;;;16.45;42.64
28630;BME280;15817;42.130;24.762;2023-02-19T09:18:46;100129.28;;;16.52;42.42
28630;BME280;15817;42.130;24.762;2023-02-19T09:21:15;100123.03;;;16.52;42.65
28630;BME280;15817;42.130;24.762;2023-02-19T09:23:47;100129.84;;;16.67;42.39
28630;BME280;15817;42.130;24.762;2023-02-19T09:26:18;100115.44;;;16.69;42.46
28630;BME280;15817;42.130;24.762;2023-02-19T09:28:44;100119.75;;;16.75;42.22
28630;BME280;15817;42.130;24.762;2023-02-19T09:31:16;100111.47;;;16.84;42.44
28630;BME280;15817;42.130;24.762;2023-02-19T09:33:48;100119.91;;;17.02;42.28
28630;BME280;15817;42.130;24.762;2023-02-19T09:36:22;100112.88;;;16.97;42.31
28630;BME280;15817;42.130;24.762;2023-02-19T09:46:22;100098.22;;;17.09;41.94
28630;BME280;15817;42.130;24.762;2023-02-19T09:54:46;100089.47;;;17.31;41.14
28630;BME280;15817;42.130;24.762;2023-02-19T09:57:34;100082.03;;;17.41;39.69
28630;BME280;15817;42.130;24.762;2023-02-19T10:03:15;100074.34;;;17.57;39.45
28630;BME280;15817;42.130;24.762;2023-02-19T10:09:28;100057.03;;;17.67;39.49
28630;BME280;15817;42.130;24.762;2023-02-19T10:16:06;100060.59;;;17.95;39.50
28630;BME280;15817;42.130;24.762;2023-02-19T10:19:04;100045.28;;;17.97;39.48
28630;BME280;15817;42.130;24.762;2023-02-19T10:21:45;100045.03;;;18.05;39.65
28630;BME280;15817;42.130;24.762;2023-02-19T10:24:20;100031.41;;;18.09;39.71
28630;BME280;15817;42.130;24.762;2023-02-19T10:27:27;100025.66;;;18.20;39.65
28630;BME280;15817;42.130;24.762;2023-02-19T10:42:05;100012.63;;;18.59;37.72
28630;BME280;15817;42.130;24.762;2023-02-19T10:45:48;99996.19;;;18.67;37.81
28630;BME280;15817;42.130;24.762;2023-02-19T10:48:34;99988.69;;;18.50;37.66
28630;BME280;15817;42.130;24.762;2023-02-19T10:51:28;99991.25;;;18.53;37.62
28630;BME280;15817;42.130;24.762;2023-02-19T10:54:29;99978.53;;;18.58;37.37
28630;BME280;15817;42.130;24.762;2023-02-19T11:02:26;99971.63;;;18.50;37.80
28630;BME280;15817;42.130;24.762;2023-02-19T11:05:17;99948.16;;;18.53;38.15
28630;BME280;15817;42.130;24.762;2023-02-19T11:07:56;99955.81;;;18.65;37.79
28630;BME280;15817;42.130;24.762;2023-02-19T11:10:26;99959.59;;;18.60;37.48
28630;BME280;15817;42.130;24.762;2023-02-19T11:13:33;99942.34;;;18.40;37.86
28630;BME280;15817;42.130;24.762;2023-02-19T11:16:08;99946.41;;;18.52;37.46
28630;BME280;15817;42.130;24.762;2023-02-19T11:18:34;99938.78;;;18.65;37.51
28630;BME280;15817;42.130;24.762;2023-02-19T11:24:54;99928.31;;;18.80;37.29
28630;BME280;15817;42.130;24.762;2023-02-19T11:27:22;99932.63;;;18.85;37.40
28630;BME280;15817;42.130;24.762;2023-02-19T11:29:49;99930.63;;;18.90;37.12
28630;BME280;15817;42.130;24.762;2023-02-19T11:32:38;99934.84;;;18.97;37.00
28630;BME280;15817;42.130;24.762;2023-02-19T11:35:21;99923.13;;;18.98;36.82
28630;BME280;15817;42.130;24.762;2023-02-19T11:38:10;99915.91;;;18.98;36.87
28630;BME280;15817;42.130;24.762;2023-02-19T11:52:18;99903.34;;;18.75;37.46
28630;BME280;15817;42.130;24.762;2023-02-19T11:54:51;99887.13;;;18.77;37.27
28630;BME280;15817;42.130;24.762;2023-02-19T12:08:13;99863.13;;;18.69;37.19
28630;BME280;15817;42.130;24.762;2023-02-19T12:26:23;99848.00;;;18.67;38.12
28630;BME280;15817;42.130;24.762;2023-02-19T12:39:46;99819.75;;;18.30;38.59
28630;BME280;15817;42.130;24.762;2023-02-19T12:42:33;99817.84;;;18.34;39.06
28630;BME280;15817;42.130;24.762;2023-02-19T12:45:18;99811.47;;;18.35;38.51
28630;BME280;15817;42.130;24.762;2023-02-19T12:47:57;99799.88;;;18.34;38.32
28630;BME280;15817;42.130;24.762;2023-02-19T12:50:26;99803.59;;;18.54;38.00
28630;BME280;15817;42.130;24.762;2023-02-19T12:56:16;99800.59;;;18.61;38.16
28630;BME280;15817;42.130;24.762;2023-02-19T12:59:09;99792.00;;;18.52;37.80
28630;BME280;15817;42.130;24.762;2023-02-19T13:01:38;99784.38;;;18.39;38.48
28630;BME280;15817;42.130;24.762;2023-02-19T13:07:26;99778.50;;;18.30;38.76
28630;BME280;15817;42.130;24.762;2023-02-19T13:10:02;99768.19;;;18.18;38.69
28630;BME280;15817;42.130;24.762;2023-02-19T13:12:37;99761.09;;;18.38;37.38
28630;BME280;15817;42.130;24.762;2023-02-19T13:15:14;99757.28;;;18.44;38.12
28630;BME280;15817;42.130;24.762;2023-02-19T13:17:49;99762.00;;;18.61;37.77
28630;BME280;15817;42.130;24.762;2023-02-19T13:20:31;99758.22;;;18.66;37.95
28630;BME280;15817;42.130;24.762;2023-02-19T13:23:08;99751.47;;;18.55;38.70
28630;BME280;15817;42.130;24.762;2023-02-19T13:29:00;99748.75;;;18.33;39.07
28630;BME280;15817;42.130;24.762;2023-02-19T13:31:59;99735.81;;;18.19;40.05
28630;BME280;15817;42.130;24.762;2023-02-19T13:37:31;99726.31;;;18.11;39.57
28630;BME280;15817;42.130;24.762;2023-02-19T13:40:05;99710.50;;;18.01;39.40
28630;BME280;15817;42.130;24.762;2023-02-19T13:42:50;99713.94;;;18.05;39.23
28630;BME280;15817;42.130;24.762;2023-02-19T13:45:22;99720.22;;;18.05;39.38
28630;BME280;15817;42.130;24.762;2023-02-19T13:50:32;99712.69;;;18.14;38.80
28630;BME280;15817;42.130;24.762;2023-02-19T13:53:47;99695.00;;;18.08;39.70
28630;BME280;15817;42.130;24.762;2023-02-19T13:55:52;99685.34;;;18.02;38.97
28630;BME280;15817;42.130;24.762;2023-02-19T14:01:07;99684.78;;;18.16;39.13
28630;BME280;15817;42.130;24.762;2023-02-19T14:06:07;99689.00;;;18.00;39.69
28630;BME280;15817;42.130;24.762;2023-02-19T14:08:48;99683.94;;;17.92;39.77
28630;BME280;15817;42.130;24.762;2023-02-19T14:14:37;99674.31;;;17.87;40.15
28630;BME280;15817;42.130;24.762;2023-02-19T14:20:00;99664.28;;;17.90;38.55
28630;BME280;15817;42.130;24.762;2023-02-19T14:30:52;99661.91;;;17.83;39.71
28630;BME280;15817;42.130;24.762;2023-02-19T14:33:29;99662.00;;;17.80;39.81
28630;BME280;15817;42.130;24.762;2023-02-19T14:38:45;99659.25;;;17.81;38.93
28630;BME280;15817;42.130;24.762;2023-02-19T14:41:15;99643.47;;;17.72;39.45
28630;BME280;15817;42.130;24.762;2023-02-19T14:43:44;99632.66;;;17.73;38.85
28630;BME280;15817;42.130;24.762;2023-02-19T14:46:46;99643.38;;;17.75;38.77
28630;BME280;15817;42.130;24.762;2023-02-19T14:51:59;99628.22;;;17.72;39.25
28630;BME280;15817;42.130;24.762;2023-02-19T15:02:49;99627.22;;;17.75;39.64
28630;BME280;15817;42.130;24.762;2023-02-19T15:05:30;99613.50;;;17.58;39.64
28630;BME280;15817;42.130;24.762;2023-02-19T15:08:01;99612.81;;;17.53;40.09
28630;BME280;15817;42.130;24.762;2023-02-19T15:10:31;99612.00;;;17.51;40.31
28630;BME280;15817;42.130;24.762;2023-02-19T15:13:22;99606.56;;;17.52;39.89
28630;BME280;15817;42.130;24.762;2023-02-19T15:15:49;99589.72;;;17.47;40.41
28630;BME280;15817;42.130;24.762;2023-02-19T15:18:40;99594.22;;;17.47;40.06
28630;BME280;15817;42.130;24.762;2023-02-19T15:21:27;99618.00;;;17.57;39.65
28630;BME280;15817;42.130;24.762;2023-02-19T15:24:03;99604.88;;;17.50;40.01
28630;BME280;15817;42.130;24.762;2023-02-19T15:26:37;99611.13;;;17.50;40.13
28630;BME280;15817;42.130;24.762;2023-02-19T15:29:18;99615.78;;;17.45;40.23
28630;BME280;15817;42.130;24.762;2023-02-19T15:35:21;99605.28;;;17.39;39.42
28630;BME280;15817;42.130;24.762;2023-02-19T15:37:55;99616.56;;;17.49;39.71
28630;BME280;15817;42.130;24.762;2023-02-19T15:41:03;99612.00;;;17.51;39.70
28630;BME280;15817;42.130;24.762;2023-02-19T15:51:33;99604.19;;;17.20;41.19
28630;BME280;15817;42.130;24.762;2023-02-19T15:54:57;99605.31;;;17.14;40.95
28630;BME280;15817;42.130;24.762;2023-02-19T15:58:02;99605.75;;;17.02;41.30
28630;BME280;15817;42.130;24.762;2023-02-19T16:01:03;99604.28;;;16.93;41.31
28630;BME280;15817;42.130;24.762;2023-02-19T16:04:05;99607.22;;;16.86;42.07
28630;BME280;15817;42.130;24.762;2023-02-19T16:07:28;99614.50;;;16.84;41.55
28630;BME280;15817;42.130;24.762;2023-02-19T16:10:28;99608.63;;;16.73;41.86
28630;BME280;15817;42.130;24.762;2023-02-19T16:13:10;99605.16;;;16.69;42.12
28630;BME280;15817;42.130;24.762;2023-02-19T16:15:58;99608.00;;;16.64;41.97
28630;BME280;15817;42.130;24.762;2023-02-19T16:18:35;99615.22;;;16.62;41.98
28630;BME280;15817;42.130;24.762;2023-02-19T16:28:12;99601.25;;;16.51;42.18
28630;BME280;15817;42.130;24.762;2023-02-19T16:31:07;99609.44;;;16.48;42.63
28630;BME280;15817;42.130;24.762;2023-02-19T16:33:43;99615.78;;;16.46;42.40
28630;BME280;15817;42.130;24.762;2023-02-19T16:36:42;99606.94;;;16.42;42.71
28630;BME280;15817;42.130;24.762;2023-02-19T16:43:38;99606.44;;;16.31;43.41
28630;BME280;15817;42.130;24.762;2023-02-19T16:46:13;99612.72;;;16.30;43.24
28630;BME280;15817;42.130;24.762;2023-02-19T16:48:39;99619.06;;;16.27;43.04
28630;BME280;15817;42.130;24.762;2023-02-19T16:51:43;99622.84;;;16.22;43.34
28630;BME280;15817;42.130;24.762;2023-02-19T16:57:26;99625.66;;;16.17;43.60
28630;BME280;15817;42.130;24.762;2023-02-19T17:03:32;99622.56;;;16.03;43.74
28630;BME280;15817;42.130;24.762;2023-02-19T17:06:35;99627.22;;;15.97;44.19
28630;BME280;15817;42.130;24.762;2023-02-19T17:09:33;99645.00;;;16.01;44.42
28630;BME280;15817;42.130;24.762;2023-02-19T17:12:15;99634.56;;;15.91;44.49
28630;BME280;15817;42.130;24.762;2023-02-19T17:16:02;99637.25;;;15.91;44.47
28630;BME280;15817;42.130;24.762;2023-02-19T17:26:26;99635.66;;;15.84;44.49
28630;BME280;15817;42.130;24.762;2023-02-19T17:33:47;99643.00;;;15.79;44.75
28630;BME280;15817;42.130;24.762;2023-02-19T17:57:14;99658.00;;;15.55;45.82
28630;BME280;15817;42.130;24.762;2023-02-19T18:07:17;99665.47;;;15.44;45.99
28630;BME280;15817;42.130;24.762;2023-02-19T18:09:55;99654.00;;;15.38;45.84
28630;BME280;15817;42.130;24.762;2023-02-19T18:12:34;99656.63;;;15.41;45.92
28630;BME280;15817;42.130;24.762;2023-02-19T18:15:07;99661.28;;;15.34;45.92
28630;BME280;15817;42.130;24.762;2023-02-19T18:17:38;99656.69;;;15.38;46.01
28630;BME280;15817;42.130;24.762;2023-02-19T18:20:32;99659.56;;;15.32;46.12
28630;BME280;15817;42.130;24.762;2023-02-19T18:26:34;99656.88;;;15.32;45.95